• Join FlightAware (Why Join?)
  • Login
  • US Flag 
12:51PM EST


 

Airport Tracker/Info


-or-


 

Live Flight TrackerFlight Track Log ✈ DAL268 ✈ 29-Apr-2013 ✈ KATL - KJFK

Flight Track Log - Related Links

Times and Time Zones

All times are in EDT time to prevent confusion due to time zone crossing. See the DAL268 flight status page for this flight to view local times or setup timezone preferences in your user account.

Time Position Orientation Groundspeed Altitude Reporting Facility
EDT Latitude Longitude Course Direction KTS MPH feet Rate Location/Type
06:31PM 33.6333 -84.4667 64° Northeast 179 206 2,200  Level Atlanta TRACON
06:32PM 33.6167 -84.5333 253° West 243 280 3,600 2,100 Climbing Atlanta TRACON
06:34PM 33.7138 -84.0161 101° East  Level FlightAware Approximate
06:34PM 33.5500 -84.5833 212° Southwest 272 313 6,700  Level Atlanta TRACON
06:35PM 33.6913 -83.8807 101° East  Level FlightAware Approximate
06:35PM 33.4531 -84.4919 142° Southeast 281 323 10,700  Level Atlanta Center
06:36PM 33.6687 -83.7454 101° East  Level FlightAware Approximate
06:36PM 33.4578 -84.3725 87° East 279 321 12,500  Level Atlanta Center
06:37PM 33.6587 -83.6121 64° Northeast  Level FlightAware Approximate
06:37PM 33.4664 -84.2506 85° East 348 400 14,900  Level Atlanta Center
06:38PM 33.5144 -84.1358 63° Northeast 360 414 17,400 2,160 Climbing Atlanta Center
06:39PM 33.5647 -84.0239 62° Northeast 377 434 19,300 1,800 Climbing Atlanta Center
06:40PM 33.6083 -83.9042 66° East 385 443 21,000 1,500 Climbing Atlanta Center
06:41PM 33.6353 -83.7719 76° East 395 455 22,300 1,380 Climbing Atlanta Center
06:42PM 33.6661 -83.6319 75° East 413 475 23,800 1,380 Climbing Atlanta Center
06:43PM 33.7181 -83.4994 65° Northeast 430 495 25,100 1,200 Climbing Atlanta Center
06:44PM 33.7736 -83.3667 63° Northeast 442 509 26,200 1,080 Climbing Atlanta Center
06:45PM 33.8269 -83.2286 65° Northeast 447 514 27,300 900 Climbing Atlanta Center
06:46PM 33.8803 -83.1031 63° Northeast 452 520 28,100 1,080 Climbing Atlanta Center
06:47PM 33.9336 -82.9572 66° East 463 533 29,500 1,140 Climbing Atlanta Center
06:48PM 33.9906 -82.8161 64° Northeast 469 540 30,400 900 Climbing Atlanta Center
06:49PM 34.0517 -82.6697 63° Northeast 469 540 31,300 840 Climbing Atlanta Center
06:50PM 34.1106 -82.5258 64° Northeast 469 540 32,100 720 Climbing Atlanta Center
06:51PM 34.1711 -82.3667 65° Northeast 469 540 32,800 420 Climbing Atlanta Center
06:52PM 34.2275 -82.2222 65° Northeast 469 540 33,000 60 Climbing Atlanta Center
06:53PM 34.2900 -82.0803 62° Northeast 469 540 33,000  Level Atlanta Center
06:54PM 34.3586 -81.9453 58° Northeast 469 540 33,000  Level Atlanta Center
06:55PM 34.4272 -81.8050 59° Northeast 476 548 33,000  Level Atlanta Center
06:56PM 34.4956 -81.6647 59° Northeast 476 548 33,000  Level Atlanta Center
06:57PM 34.5639 -81.5289 59° Northeast 476 548 33,000  Level Atlanta Center
06:58PM 34.6317 -81.3881 64° Northeast 476 548 33,000  Level Atlanta Center
06:59PM 34.6184 -81.3947 64° Northeast  Level FlightAware Approximate
06:59PM 34.6997 -81.2519 59° Northeast 476 548 33,000  Level Atlanta Center
07:00PM 34.7675 -81.1133 59° Northeast 476 548 33,000  Level Atlanta Center
07:01PM 34.8350 -80.9717 60° Northeast 481 554 33,000  Level Atlanta Center
07:02PM 34.9044 -80.8325 59° Northeast 476 548 33,000  Level Atlanta Center
07:03PM 34.9717 -80.6956 59° Northeast 475 547 33,000  Level Atlanta Center
07:04PM 35.0406 -80.5506 60° Northeast 475 547 33,000  Level Atlanta Center
07:05PM 35.1075 -80.4081 60° Northeast 482 555 33,000  Level Atlanta Center
07:08PM 35.2492 -80.0964 61° Northeast 491 565 33,000  Level Washington Center
07:09PM 35.2956 -79.9667 66° East 480 552 33,000  Level Washington Center
07:10PM 35.3450 -79.8114 69° East 480 552 33,000  Level Washington Center
07:11PM 35.3922 -79.6558 70° East 480 552 33,000  Level Washington Center
07:12PM 35.4411 -79.5028 69° East 480 552 33,000  Level Washington Center
07:13PM 35.4947 -79.3269 69° East 485 558 33,000  Level Washington Center
07:14PM 35.5436 -79.1658 70° East 491 565 33,000  Level Washington Center
07:15PM 35.5875 -79.0222 69° East 496 571 33,000  Level Washington Center
07:16PM 35.6422 -78.8483 69° East 501 577 33,000  Level Washington Center
07:17PM 35.6925 -78.6839 69° East 501 577 33,000  Level Washington Center
07:18PM 35.7425 -78.5197 69° East 501 577 33,000  Level Washington Center
07:19PM 35.7883 -78.3550 71° East 501 577 33,000  Level Washington Center
07:20PM 35.8358 -78.1900 70° East 501 577 33,000  Level Washington Center
07:21PM 35.8850 -78.0275 69° East 501 577 33,000  Level Washington Center
07:22PM 35.9300 -77.8672 71° East 501 577 33,000  Level Washington Center
07:23PM 35.9808 -77.7044 69° East 501 577 33,000  Level Washington Center
07:24PM 36.0628 -77.5628 54° Northeast 484 557 33,000  Level Washington Center
07:25PM 36.1483 -77.4261 52° Northeast 495 570 33,000  Level Washington Center
07:26PM 36.2297 -77.2889 54° Northeast 502 578 33,000  Level Washington Center
07:27PM 36.3150 -77.1542 52° Northeast 502 578 33,000  Level Washington Center
07:28PM 36.3936 -77.0242 53° Northeast 502 578 33,000  Level Washington Center
07:29PM 36.4872 -76.8733 52° Northeast 502 578 33,000  Level Washington Center
07:30PM 36.5656 -76.7478 52° Northeast 502 578 33,000  Level Washington Center
07:31PM 36.6503 -76.6094 53° Northeast 502 578 33,000  Level Washington Center
07:32PM 36.7328 -76.4678 54° Northeast 502 578 33,000  Level Washington Center
07:33PM 36.8153 -76.3261 54° Northeast 502 578 33,000  Level Washington Center
07:34PM 36.9036 -76.1997 49° Northeast 492 566 33,000  Level Washington Center
07:35PM 37.0289 -76.1331 23° Northeast 476 548 33,000  Level Washington Center
07:36PM 37.1481 -76.0686 23° Northeast 469 540 33,000  Level Washington Center
07:37PM 37.2694 -76.0042 23° Northeast 463 533 33,000  Level Washington Center
07:38PM 37.3947 -75.9369 23° Northeast 468 539 33,000  Level Washington Center
07:39PM 37.5158 -75.8719 23° Northeast 468 539 33,000  Level Washington Center
07:40PM 37.6350 -75.7964 27° Northeast 473 544 33,000  Level Washington Center
07:41PM 37.7517 -75.7178 28° Northeast 473 544 33,000  Level Washington Center
07:42PM 37.8728 -75.6364 28° Northeast 478 550 33,000 -60 Level Washington Center
07:43PM 38.0042 -75.5497 27° Northeast 473 544 32,900  Descending Washington Center
07:44PM 38.1250 -75.4678 28° Northeast 473 544 33,000  Climbing Washington Center
07:45PM 38.2458 -75.3856 28° Northeast 483 556 33,000  Level Washington Center
07:46PM 38.3522 -75.3083 30° Northeast 483 556 33,000  Level Washington Center
07:47PM 38.4708 -75.2364 25° Northeast 483 556 33,000  Level Washington Center
07:48PM 38.5892 -75.1508 29° Northeast 472 543 33,000  Level Washington Center
07:49PM 38.7058 -75.0728 28° Northeast 472 543 33,000  Level Washington Center
07:50PM 38.8242 -74.9947 27° Northeast 467 537 33,000  Level Washington Center
07:51PM 38.9425 -74.9111 29° Northeast 472 543 33,000 -600 Level Washington Center
07:52PM 39.0567 -74.8353 27° Northeast 467 537 31,800 -2,040 Descending Washington Center
07:53PM 39.1644 -74.7403 34° Northeast 467 537 29,000 -2,700 Descending Washington Center
07:55PM 39.3617 -74.5247 40° Northeast 503 579 23,900 -2,760 Descending New York Center
07:56PM 39.4503 -74.4300 40° Northeast 456 525 20,800 -2,880 Descending New York Center
07:57PM 39.5453 -74.3217 41° Northeast 404 465 18,100 -1,500 Descending New York Center
07:58PM 39.6272 -74.2289 41° Northeast 394 453 17,800 -960 Descending New York Center
07:59PM 39.7111 -74.1386 40° Northeast 394 453 16,200 -1,920 Descending New York Center
08:00PM 39.7844 -74.0583 40° Northeast 394 453 14,100 -2,040 Descending New York Center
08:01PM 39.8636 -73.9783 38° Northeast 378 435 12,200 -1,560 Descending New York Center
08:02PM 39.9592 -73.9150 27° Northeast 356 410 11,000 -660 Descending New York Center
08:03PM 40.0419 -73.8619 26° Northeast 332 382 11,000 -120 Level New York Center
08:04PM 40.1097 -73.8214 25° Northeast 304 350 10,800 -720 Descending New York Center
08:05PM 40.1667 -73.7500 44° Northeast 287 330 9,600 -1,800 Descending New York TRACON
08:06PM 40.2333 -73.7000 30° Northeast 289 333 7,300 -2,100 Descending New York TRACON
08:07PM 40.2833 -73.7667 315° West 279 321 5,400 -1,500 Descending New York TRACON
08:08PM 40.3333 -73.8333 315° West 255 293 4,300 -1,020 Descending New York TRACON
08:09PM 40.3594 -73.9142 293° West 240 276 3,400 -660 Descending New York Center
08:10PM 40.3828 -73.9697 299° West 208 239 3,000 -240 Descending New York Center
08:11PM 40.4500 -73.9833 351° North 208 239 3,000  Level New York TRACON
08:12PM 40.5000 -73.9833 360° North 208 239 3,000 -180 Level New York TRACON
08:13PM 40.5500 -73.9500 27° Northeast 193 222 2,700 -600 Descending New York TRACON
08:14PM 40.5833 -73.9167 37° Northeast 173 199 1,800 -900 Descending New York TRACON